Time;durP1;ratioP1;P1;durP2;ratioP2;P2;SDS_P1;SDS_P2;PMS_P1;PMS_P2;Temp;Humidity;BMP_temperature;BMP_pressure;BME280_temperature;BME280_humidity;BME280_pressure;Samples;Min_cycle;Max_cycle;Signal;HPM_P1;HPM_P2
2021/01/15 00:26:35;;;;;;;9.70;4.13;;;-0.10;99.90;;;;;;4907015;28;20100;-78
2021/01/15 00:29:00;;;;;;;11.68;3.85;;;-0.20;99.90;;;;;;4910866;28;20100;-78
2021/01/15 00:31:30;;;;;;;;;;;-0.10;99.90;;;;;;4904114;28;20090;-78
2021/01/15 00:33:54;;;;;;;8.07;4.07;;;-0.20;99.90;;;;;;4905128;28;19974;-78
2021/01/15 00:36:18;;;;;;;8.95;3.28;;;-0.20;99.90;;;;;;4906703;28;20542;-79
2021/01/15 00:38:42;;;;;;;10.77;4.07;;;-0.20;99.90;;;;;;4899346;28;20422;-78
2021/01/15 00:41:10;;;;;;;9.27;3.85;;;-0.20;99.90;;;;;;4902118;28;20091;-79
2021/01/15 00:43:36;;;;;;;9.80;3.92;;;-0.10;99.90;;;;;;4900694;28;20175;-78
2021/01/15 00:45:59;;;;;;;11.20;4.82;;;0.00;99.90;;;;;;4903282;28;20422;-78
2021/01/15 00:48:23;;;;;;;7.60;3.65;;;0.00;99.90;;;;;;4910585;28;20091;-78
2021/01/15 00:50:48;;;;;;;11.98;4.07;;;0.10;99.90;;;;;;4906461;28;20098;-78
2021/01/15 00:53:11;;;;;;;7.80;3.43;;;0.10;99.90;;;;;;4908978;28;20512;-78
2021/01/15 00:55:34;;;;;;;12.75;4.43;;;0.10;99.90;;;;;;4911055;28;20101;-78
2021/01/15 00:57:58;;;;;;;10.73;3.83;;;0.20;99.90;;;;;;4903342;28;20091;-78
2021/01/15 01:00:23;;;;;;;10.02;4.68;;;0.20;99.90;;;;;;4898262;28;20095;-77
2021/01/15 01:02:46;;;;;;;11.85;4.75;;;0.20;99.90;;;;;;4909510;28;20525;-78
2021/01/15 01:05:11;;;;;;;9.07;4.30;;;0.20;99.90;;;;;;4904909;28;20151;-78
2021/01/15 01:07:37;;;;;;;11.13;4.13;;;0.20;99.90;;;;;;4899791;28;20091;-78
2021/01/15 01:10:04;;;;;;;11.15;4.82;;;0.20;99.90;;;;;;4910842;28;20088;-79
2021/01/15 01:12:27;;;;;;;14.00;4.78;;;0.30;99.90;;;;;;4904365;28;20184;-78
2021/01/15 01:14:52;;;;;;;13.77;4.22;;;0.30;99.90;;;;;;4901220;28;20118;-78
2021/01/15 01:17:16;;;;;;;10.23;4.72;;;0.30;99.90;;;;;;4907760;28;20087;-77
2021/01/15 01:19:40;;;;;;;12.60;4.90;;;0.30;99.90;;;;;;4902881;28;20167;-78
2021/01/15 01:22:03;;;;;;;9.40;4.07;;;0.30;99.90;;;;;;4905263;28;20144;-78
2021/01/15 01:24:26;;;;;;;19.08;4.57;;;0.30;99.90;;;;;;4905970;28;20091;-78
2021/01/15 01:26:49;;;;;;;9.93;4.05;;;0.30;99.90;;;;;;4905206;28;20526;-77
2021/01/15 01:29:12;;;;;;;12.98;4.20;;;0.30;99.90;;;;;;4905063;28;20080;-77
2021/01/15 01:31:37;;;;;;;10.23;4.57;;;0.30;99.90;;;;;;4903223;28;20093;-78
2021/01/15 01:34:01;;;;;;;9.13;4.20;;;;;;;;;;4906695;28;20180;-77
2021/01/15 01:36:25;;;;;;;15.07;4.30;;;0.30;99.90;;;;;;4907896;28;20104;-79
2021/01/15 01:38:55;;;;;;;6.75;3.80;;;0.30;99.90;;;;;;4902941;28;20117;-78
2021/01/15 01:41:22;;;;;;;9.38;4.30;;;0.30;99.90;;;;;;4909037;28;20549;-78
2021/01/15 01:43:46;;;;;;;9.05;4.45;;;0.30;99.90;;;;;;4904230;28;20107;-78
2021/01/15 01:46:10;;;;;;;9.27;3.65;;;0.30;99.90;;;;;;4907695;28;20424;-77
2021/01/15 01:48:34;;;;;;;8.77;4.05;;;0.30;99.90;;;;;;4900363;28;20116;-78
2021/01/15 01:50:59;;;;;;;7.47;3.65;;;0.30;99.90;;;;;;4903971;28;20086;-77
2021/01/15 01:53:27;;;;;;;8.85;4.15;;;0.20;99.90;;;;;;4902473;28;20121;-78
2021/01/15 01:55:57;;;;;;;11.93;4.32;;;0.30;99.90;;;;;;4897977;28;20124;-77
2021/01/15 01:58:21;;;;;;;9.55;4.22;;;0.20;99.90;;;;;;4899421;28;20451;-78
2021/01/15 02:00:47;;;;;;;8.95;3.80;;;0.20;99.90;;;;;;4902726;28;20108;-83
2021/01/15 02:03:16;;;;;;;15.40;5.18;;;0.30;99.90;;;;;;4907921;28;20514;-78
2021/01/15 02:05:41;;;;;;;11.75;4.38;;;0.30;99.90;;;;;;4907269;28;20543;-77
2021/01/15 02:08:11;;;;;;;13.95;4.28;;;0.30;99.90;;;;;;4897879;28;20420;-78
2021/01/15 02:10:42;;;;;;;10.77;5.10;;;0.30;99.90;;;;;;4904323;28;20531;-78
2021/01/15 02:13:22;;;;;;;14.82;4.45;;;0.20;99.90;;;;;;4899270;28;20089;-78
2021/01/15 02:15:50;;;;;;;11.13;5.05;;;0.20;99.90;;;;;;4902913;28;20083;-77
2021/01/15 02:18:22;;;;;;;11.93;5.30;;;0.30;99.90;;;;;;4903797;28;20176;-78
2021/01/15 02:21:14;;;;;;;9.60;3.53;;;0.30;99.90;;;;;;4906685;28;20440;-77
2021/01/15 02:23:40;;;;;;;11.52;4.25;;;0.70;99.90;;;;;;4849644;28;26327;-78
2021/01/15 02:26:53;;;;;;;9.23;3.47;;;0.20;99.90;;;;;;4903935;28;20101;-78
2021/01/15 02:29:19;;;;;;;11.30;3.95;;;0.30;99.90;;;;;;4883551;28;20103;-78
2021/01/15 02:32:09;;;;;;;12.20;5.07;;;0.20;99.90;;;;;;4892394;28;20114;-78
2021/01/15 02:34:53;;;;;;;6.97;3.80;;;0.20;99.90;;;;;;4900617;28;20087;-77
2021/01/15 02:37:21;;;;;;;9.75;4.45;;;0.20;99.90;;;;;;4900715;28;20137;-78
2021/01/15 02:39:54;;;;;;;9.18;4.05;;;0.20;99.90;;;;;;4897684;28;20089;-78
2021/01/15 02:42:20;;;;;;;9.50;4.28;;;0.20;99.90;;;;;;4906259;28;20142;-77
2021/01/15 02:44:49;;;;;;;8.95;4.15;;;0.20;99.90;;;;;;4901091;28;20088;-78
2021/01/15 02:47:19;;;;;;;7.35;3.25;;;0.20;99.90;;;;;;4892241;28;20536;-78
2021/01/15 02:49:44;;;;;;;7.72;3.22;;;0.20;99.90;;;;;;4901312;28;20083;-78
2021/01/15 02:52:11;;;;;;;6.30;3.45;;;0.20;99.90;;;;;;4899149;28;20528;-77
2021/01/15 02:54:34;;;;;;;7.60;3.38;;;0.10;99.90;;;;;;4904394;28;20107;-77
2021/01/15 02:56:57;;;;;;;8.15;2.80;;;0.10;99.90;;;;;;4903292;28;20180;-78
2021/01/15 02:59:22;;;;;;;8.73;3.97;;;0.10;99.90;;;;;;4898443;28;20484;-79
2021/01/15 03:01:54;;;;;;;6.13;2.95;;;0.00;99.90;;;;;;4900554;28;20188;-78
2021/01/15 03:04:30;;;;;;;6.78;2.83;;;0.00;99.90;;;;;;4902405;28;20097;-78
2021/01/15 03:06:59;;;;;;;6.00;2.58;;;0.10;99.90;;;;;;4901506;28;20091;-77
2021/01/15 03:09:25;;;;;;;7.50;3.15;;;0.10;99.90;;;;;;4901424;28;20457;-79
2021/01/15 03:11:54;;;;;;;8.02;3.50;;;0.00;99.90;;;;;;4908397;28;20433;-78
2021/01/15 03:14:19;;;;;;;11.27;3.03;;;0.00;99.90;;;;;;4908210;28;20092;-78
2021/01/15 03:16:45;;;;;;;6.93;2.85;;;0.00;99.90;;;;;;4910545;28;20088;-78
2021/01/15 03:19:09;;;;;;;5.88;2.92;;;-0.10;99.90;;;;;;4903841;28;20092;-78
2021/01/15 03:21:37;;;;;;;6.82;3.42;;;0.00;99.90;;;;;;4911831;28;20143;-78
2021/01/15 03:24:04;;;;;;;6.25;2.83;;;0.00;99.90;;;;;;4895704;28;20090;-78
2021/01/15 03:26:29;;;;;;;5.45;3.10;;;-0.10;99.90;;;;;;4912118;28;20151;-78
2021/01/15 03:28:52;;;;;;;9.32;3.47;;;-0.10;99.90;;;;;;4910027;28;20141;-78
2021/01/15 03:31:17;;;;;;;6.65;2.80;;;-0.10;99.90;;;;;;4911839;28;20581;-78
2021/01/15 03:33:40;;;;;;;8.23;3.55;;;-0.10;99.90;;;;;;4909078;28;20432;-78
2021/01/15 03:36:04;;;;;;;7.13;3.30;;;-0.10;99.90;;;;;;4912079;28;20088;-78
2021/01/15 03:38:28;;;;;;;13.32;3.65;;;-0.10;99.90;;;;;;4911209;28;20503;-78
2021/01/15 03:40:53;;;;;;;7.60;3.38;;;-0.10;99.90;;;;;;4905409;28;20101;-78
2021/01/15 03:43:19;;;;;;;5.95;2.63;;;-0.10;99.90;;;;;;4886884;28;20093;-78
2021/01/15 03:45:44;;;;;;;5.47;2.85;;;-0.10;99.90;;;;;;4904666;28;20095;-79
2021/01/15 03:48:08;;;;;;;7.45;3.03;;;-0.10;99.90;;;;;;4902466;28;20095;-78
2021/01/15 03:50:32;;;;;;;8.50;3.03;;;-0.10;99.90;;;;;;4902844;28;20095;-79
2021/01/15 03:52:55;;;;;;;6.53;2.80;;;-0.10;99.90;;;;;;4905825;28;20094;-78
2021/01/15 03:55:18;;;;;;;6.20;2.97;;;-0.20;99.90;;;;;;4909386;28;20473;-78
2021/01/15 03:57:42;;;;;;;9.23;3.35;;;-0.20;99.90;;;;;;4910352;28;20087;-78
2021/01/15 04:00:07;;;;;;;6.38;3.05;;;-0.10;99.90;;;;;;4908895;28;20490;-78
2021/01/15 04:02:31;;;;;;;14.60;3.20;;;-0.20;99.90;;;;;;4911461;28;20089;-78
2021/01/15 04:04:54;;;;;;;6.43;3.33;;;-0.10;99.90;;;;;;4913373;28;22150;-78
2021/01/15 04:07:18;;;;;;;7.93;3.70;;;-0.20;99.90;;;;;;4895659;28;21085;-78
2021/01/15 04:09:40;;;;;;;8.63;3.88;;;-0.20;99.90;;;;;;4906908;28;20099;-78
2021/01/15 04:12:04;;;;;;;7.97;3.90;;;-0.20;99.90;;;;;;4910900;28;20084;-77
2021/01/15 04:14:29;;;;;;;10.25;4.53;;;-0.20;99.90;;;;;;4899811;28;20994;-79
2021/01/15 04:16:52;;;;;;;11.88;4.07;;;-0.20;99.90;;;;;;4910646;28;20092;-78
2021/01/15 04:19:15;;;;;;;7.57;3.90;;;-0.20;99.90;;;;;;4909991;28;20115;-78
2021/01/15 04:21:38;;;;;;;9.27;3.75;;;-0.20;99.90;;;;;;4906331;28;20097;-78
2021/01/15 04:24:01;;;;;;;8.15;4.10;;;-0.20;99.90;;;;;;4904792;28;20093;-78
2021/01/15 04:26:28;;;;;;;10.25;4.50;;;-0.20;99.90;;;;;;4912895;28;20085;-78
2021/01/15 04:28:51;;;;;;;8.68;3.95;;;-0.20;99.90;;;;;;4911223;28;20088;-79
2021/01/15 04:31:18;;;;;;;8.75;3.88;;;1.90;99.90;;;;;;4907812;28;20530;-78
2021/01/15 04:33:42;;;;;;;13.82;3.97;;;-0.20;99.90;;;;;;4910022;28;20094;-78
2021/01/15 04:36:11;;;;;;;8.27;4.03;;;-0.20;99.90;;;;;;4908170;28;20096;-79
2021/01/15 04:38:34;;;;;;;10.20;4.38;;;-0.30;99.90;;;;;;4910304;28;20094;-79
2021/01/15 04:40:58;;;;;;;10.10;4.00;;;-0.20;99.90;;;;;;4902649;28;20209;-78
2021/01/15 04:43:25;;;;;;;6.50;3.42;;;-0.30;99.90;;;;;;4896568;28;20099;-78
2021/01/15 04:45:49;;;;;;;7.63;3.17;;;-0.30;99.90;;;;;;4906611;28;20079;-78
2021/01/15 04:48:17;;;;;;;9.63;3.58;;;-0.30;99.90;;;;;;4903386;28;20115;-77
2021/01/15 04:50:42;;;;;;;10.60;3.85;;;-0.30;99.90;;;;;;4909102;28;20438;-77
2021/01/15 04:53:05;;;;;;;;;;;;;;;;;;4910950;28;20123;-78
2021/01/15 04:55:31;;;;;;;10.77;4.57;;;-0.40;99.90;;;;;;4901350;28;20456;-78
2021/01/15 04:57:56;;;;;;;12.32;4.55;;;-0.30;99.90;;;;;;4912891;28;20104;-78
2021/01/15 05:00:21;;;;;;;13.13;4.97;;;-0.30;99.90;;;;;;4911883;28;20096;-78
2021/01/15 05:02:47;;;;;;;11.07;4.85;;;-0.40;99.90;;;;;;4914064;28;20085;-78
2021/01/15 05:05:20;;;;;;;9.43;4.20;;;-0.30;99.90;;;;;;4913438;28;20449;-78
2021/01/15 05:08:09;;;;;;;7.57;3.10;;;-0.30;99.90;;;;;;4895811;28;20514;-78
2021/01/15 05:10:36;;;;;;;9.00;3.58;;;-0.30;99.90;;;;;;4903340;28;20892;-78
2021/01/15 05:13:03;;;;;;;9.00;3.78;;;-0.30;99.90;;;;;;4900309;28;22114;-79
2021/01/15 05:15:28;;;;;;;9.02;4.05;;;-0.30;99.90;;;;;;4900176;28;20795;-79
2021/01/15 05:17:52;;;;;;;9.27;3.47;;;-0.30;99.90;;;;;;4901353;28;20437;-78
2021/01/15 05:20:18;;;;;;;10.87;3.87;;;-0.30;99.90;;;;;;4895586;28;20101;-78
2021/01/15 05:22:41;;;;;;;10.88;4.00;;;-0.30;99.90;;;;;;4899554;28;20619;-78
2021/01/15 05:25:05;;;;;;;7.18;2.80;;;-0.30;99.90;;;;;;4909790;28;20551;-78
2021/01/15 05:27:40;;;;;;;6.78;3.15;;;-0.40;99.90;;;;;;4906816;28;20200;-78
2021/01/15 05:30:15;;;;;;;5.33;2.67;;;-0.40;99.90;;;;;;4909629;28;20093;-78
2021/01/15 05:32:39;;;;;;;10.00;3.90;;;-0.40;99.90;;;;;;4893554;28;20165;-77
2021/01/15 05:35:02;;;;;;;9.43;3.95;;;-0.40;99.90;;;;;;4915795;28;20102;-78
2021/01/15 05:37:26;;;;;;;7.72;3.83;;;-0.40;99.90;;;;;;4910238;28;20097;-78
2021/01/15 05:39:50;;;;;;;10.65;3.95;;;-0.40;99.90;;;;;;4898529;28;20096;-78
2021/01/15 05:42:13;;;;;;;7.93;3.67;;;-0.40;99.90;;;;;;4902218;28;20093;-78
2021/01/15 05:44:38;;;;;;;7.85;3.42;;;-0.50;99.90;;;;;;4909909;28;20095;-78
2021/01/15 05:47:02;;;;;;;8.03;3.93;;;-0.50;99.90;;;;;;4910769;28;20095;-78
2021/01/15 05:49:27;;;;;;;6.57;3.15;;;-0.40;99.90;;;;;;4891253;28;20104;-79
2021/01/15 05:51:50;;;;;;;6.63;3.20;;;-0.40;99.90;;;;;;4902628;28;20168;-78
2021/01/15 05:54:31;;;;;;;8.50;3.25;;;-0.50;99.90;;;;;;4910317;28;20101;-78
2021/01/15 05:56:54;;;;;;;9.40;3.58;;;-0.50;99.90;;;;;;4912116;28;20181;-78
2021/01/15 05:59:19;;;;;;;7.30;3.30;;;-0.40;99.90;;;;;;4912479;28;20435;-79
2021/01/15 06:01:48;;;;;;;6.15;2.85;;;-0.50;99.90;;;;;;4900737;28;20094;-78
2021/01/15 06:04:12;;;;;;;6.95;2.75;;;-0.50;99.90;;;;;;4910600;28;20512;-78
2021/01/15 06:06:37;;;;;;;6.17;2.83;;;-0.50;99.90;;;;;;4899494;28;20101;-78
2021/01/15 06:09:02;;;;;;;10.75;3.67;;;-0.50;99.90;;;;;;4913413;28;20097;-79
2021/01/15 06:11:27;;;;;;;10.25;3.40;;;-0.50;99.90;;;;;;4913683;28;20135;-78
2021/01/15 06:13:50;;;;;;;8.55;3.33;;;-0.50;99.90;;;;;;4910061;28;20106;-78
2021/01/15 06:16:19;;;;;;;8.35;3.53;;;-0.50;99.90;;;;;;4905977;28;20532;-78
2021/01/15 06:18:57;;;;;;;7.07;3.28;;;-0.50;99.90;;;;;;4889308;28;20104;-79
2021/01/15 06:21:28;;;;;;;5.05;2.40;;;-0.50;99.90;;;;;;4886568;28;20098;-79
2021/01/15 06:24:03;;;;;;;12.25;2.67;;;-0.50;99.90;;;;;;4876731;28;20103;-79
2021/01/15 06:26:34;;;;;;;9.30;3.35;;;-0.50;99.90;;;;;;4891590;28;20108;-78
2021/01/15 06:29:10;;;;;;;4.65;2.40;;;-0.50;99.90;;;;;;4896776;28;20107;-79
2021/01/15 06:31:49;;;;;;;8.07;3.13;;;-0.50;99.90;;;;;;4902005;28;20134;-79
2021/01/15 06:34:13;;;;;;;3.38;1.98;;;-0.50;99.90;;;;;;4900732;28;21475;-79
2021/01/15 06:36:48;;;;;;;4.07;2.30;;;-0.50;99.90;;;;;;4905438;28;20091;-79
2021/01/15 06:39:12;;;;;;;3.87;1.90;;;-0.50;99.90;;;;;;4898209;28;20146;-78
2021/01/15 06:41:40;;;;;;;6.15;2.40;;;-0.50;99.90;;;;;;4907539;28;20090;-80
2021/01/15 06:44:10;;;;;;;4.60;2.42;;;-0.50;99.90;;;;;;4910463;28;20090;-79
2021/01/15 06:46:40;;;;;;;6.50;2.47;;;-0.50;99.90;;;;;;4896376;28;20219;-78
2021/01/15 06:49:05;;;;;;;6.13;2.75;;;-0.50;99.90;;;;;;4908205;28;20094;-78
2021/01/15 06:51:35;;;;;;;5.35;2.50;;;-0.50;99.90;;;;;;4909879;28;20411;-77
2021/01/15 06:54:06;;;;;;;5.28;2.92;;;-0.50;99.90;;;;;;4903363;28;20155;-80
2021/01/15 06:56:38;;;;;;;7.43;2.63;;;-0.50;99.90;;;;;;4908171;28;20092;-79
2021/01/15 06:59:15;;;;;;;4.15;1.73;;;-0.60;99.90;;;;;;4906969;28;20096;-78
2021/01/15 07:01:45;;;;;;;3.90;2.17;;;-0.60;99.90;;;;;;4897170;28;20567;-78
2021/01/15 07:04:29;;;;;;;4.57;2.30;;;-0.60;99.90;;;;;;4903032;28;20101;-79
2021/01/15 07:07:06;;;;;;;4.13;2.72;;;-0.50;99.90;;;;;;4904491;28;20105;-79
2021/01/15 07:09:31;;;;;;;5.30;2.00;;;-0.50;99.90;;;;;;4902111;28;20094;-78
2021/01/15 07:11:55;;;;;;;6.07;3.17;;;-0.50;99.90;;;;;;4907273;28;20086;-78
2021/01/15 07:14:25;;;;;;;5.88;3.03;;;-1.50;99.90;;;;;;4904458;28;20107;-79
2021/01/15 07:16:54;;;;;;;8.25;3.58;;;-0.50;99.90;;;;;;4907181;28;20086;-78
2021/01/15 07:19:25;;;;;;;9.93;3.25;;;-0.50;99.90;;;;;;4904935;28;20103;-79
2021/01/15 07:22:09;;;;;;;10.20;3.28;;;-0.40;99.90;;;;;;4899033;28;20151;-79
2021/01/15 07:24:34;;;;;;;7.13;3.17;;;-0.40;99.90;;;;;;4905084;28;20441;-79
2021/01/15 07:26:59;;;;;;;6.75;3.00;;;-0.40;99.90;;;;;;4892989;28;20093;-78
2021/01/15 07:29:28;;;;;;;7.03;2.92;;;-0.50;99.90;;;;;;4902185;28;20111;-79
2021/01/15 07:31:56;;;;;;;7.15;2.90;;;-0.50;99.90;;;;;;4901981;28;20547;-79
2021/01/15 07:34:26;;;;;;;7.90;2.20;;;-0.50;99.90;;;;;;4904741;28;20175;-79
2021/01/15 07:36:50;;;;;;;6.07;2.58;;;-0.50;99.90;;;;;;4904237;28;20100;-78
2021/01/15 07:39:15;;;;;;;6.75;2.95;;;-0.40;99.90;;;;;;4909415;28;20170;-78
2021/01/15 07:41:45;;;;;;;5.22;2.65;;;-0.50;99.90;;;;;;4907370;28;20112;-80
2021/01/15 07:44:37;;;;;;;7.90;3.28;;;-0.50;99.90;;;;;;4905472;28;20136;-78
2021/01/15 07:47:01;;;;;;;5.13;2.65;;;-0.40;99.90;;;;;;4900167;28;20185;-78
2021/01/15 07:49:25;;;;;;;3.53;2.00;;;-0.50;99.90;;;;;;4907589;28;20562;-78
2021/01/15 07:52:09;;;;;;;7.82;2.70;;;-0.40;99.90;;;;;;4901319;28;20185;-78
2021/01/15 07:55:03;;;;;;;5.65;2.70;;;-0.40;99.90;;;;;;4904055;28;20497;-80
2021/01/15 07:57:31;;;;;;;4.78;2.78;;;-0.40;99.90;;;;;;4880697;28;20143;-78
2021/01/15 07:59:57;;;;;;;7.38;2.70;;;-0.40;99.90;;;;;;4901254;28;23378;-79
2021/01/15 08:02:22;;;;;;;7.95;2.60;;;-0.40;99.90;;;;;;4904880;28;20098;-78
2021/01/15 08:04:46;;;;;;;8.63;2.38;;;-0.50;99.90;;;;;;4908259;28;20425;-78
2021/01/15 08:07:20;;;;;;;6.20;2.40;;;-0.50;99.90;;;;;;4895933;28;20098;-79
2021/01/15 08:09:44;;;;;;;11.07;2.78;;;-0.40;99.90;;;;;;4905992;28;20097;-77
2021/01/15 08:12:09;;;;;;;7.53;3.20;;;-0.40;99.90;;;;;;4904338;28;20228;-79
2021/01/15 08:14:32;;;;;;;7.22;3.05;;;-0.40;99.90;;;;;;4905767;28;20483;-78
2021/01/15 08:16:57;;;;;;;8.45;3.60;;;;;;;;;;4898350;28;20095;-79
2021/01/15 08:19:25;;;;;;;9.57;3.93;;;-0.40;99.90;;;;;;4898346;28;20097;-79
2021/01/15 08:21:49;;;;;;;9.63;3.75;;;-0.30;99.90;;;;;;4911699;28;20507;-79
2021/01/15 08:24:13;;;;;;;9.75;3.80;;;-0.30;99.90;;;;;;4912557;28;20124;-79
2021/01/15 08:26:50;;;;;;;6.60;3.42;;;-0.30;99.90;;;;;;4919863;28;20089;-79
2021/01/15 08:29:15;;;;;;;6.53;3.05;;;-0.20;99.90;;;;;;4898799;28;20100;-79
2021/01/15 08:31:39;;;;;;;8.45;3.65;;;-0.30;99.90;;;;;;4916727;28;20094;-78
2021/01/15 08:34:07;;;;;;;6.38;2.92;;;-0.20;99.90;;;;;;4912239;28;20472;-79
2021/01/15 08:36:30;;;;;;;6.10;2.55;;;-0.20;99.90;;;;;;4911023;28;20180;-78
2021/01/15 08:38:58;;;;;;;5.57;2.63;;;-0.20;99.90;;;;;;4900783;28;20101;-78
2021/01/15 08:41:24;;;;;;;8.35;3.40;;;-0.20;99.90;;;;;;4899400;28;20090;-77
2021/01/15 08:43:47;;;;;;;6.78;3.78;;;-0.20;99.90;;;;;;4897113;28;20098;-80
2021/01/15 08:46:17;;;;;;;9.98;3.35;;;-0.20;99.90;;;;;;4904061;28;20086;-79
2021/01/15 08:48:43;;;;;;;8.57;3.40;;;-0.20;99.90;;;;;;4893695;28;20106;-78
2021/01/15 08:51:12;;;;;;;8.40;3.25;;;-0.10;99.90;;;;;;4901793;28;20098;-79
2021/01/15 08:56:25;;;;;;;8.60;3.83;;;-0.10;99.90;;;;;;4907144;28;20106;-79
2021/01/15 08:58:48;;;;;;;;;;;;;;;;;;4908453;28;20124;-78
2021/01/15 11:15:34;;;;;;;2.17;0.75;;;-0.60;99.90;;;;;;4913924;28;20176;-77
2021/01/15 11:18:00;;;;;;;8.85;1.08;;;-0.50;99.90;;;;;;4900375;28;20191;-78
2021/01/15 11:20:24;;;;;;;2.20;1.00;;;-0.50;99.90;;;;;;4898520;28;20501;-78
2021/01/15 11:22:56;;;;;;;1.02;0.73;;;-0.50;99.90;;;;;;4886815;28;20176;-80
2021/01/15 11:25:21;;;;;;;0.98;0.75;;;-0.60;99.90;;;;;;4872586;28;20086;-78
2021/01/15 11:27:46;;;;;;;2.10;0.90;;;-0.70;99.90;;;;;;4877427;28;20545;-77
2021/01/15 11:30:14;;;;;;;3.45;1.30;;;-0.70;99.90;;;;;;4881577;28;21847;-78
2021/01/15 11:32:39;;;;;;;2.85;0.80;;;-0.60;99.90;;;;;;4883014;28;20534;-79
2021/01/15 11:35:03;;;;;;;2.45;1.27;;;-0.60;99.90;;;;;;4891077;28;20156;-78
2021/01/15 11:37:26;;;;;;;2.55;1.02;;;-0.70;99.90;;;;;;4886775;28;20095;-78
2021/01/15 11:39:50;;;;;;;3.75;1.10;;;-0.80;99.90;;;;;;4887747;28;20096;-77
2021/01/15 11:42:15;;;;;;;5.65;0.90;;;-0.80;99.90;;;;;;4880172;28;20101;-79
2021/01/15 11:44:39;;;;;;;7.18;1.13;;;-0.70;99.90;;;;;;4888257;28;20094;-78
2021/01/15 11:47:02;;;;;;;1.98;0.70;;;;;;;;;;4889412;28;20099;-79
2021/01/15 11:49:25;;;;;;;1.38;0.77;;;-0.90;99.90;;;;;;4887418;28;20173;-78
2021/01/15 11:51:54;;;;;;;0.95;0.70;;;-0.90;99.90;;;;;;4885688;28;20145;-78
2021/01/15 11:54:17;;;;;;;2.15;1.10;;;-0.90;99.90;;;;;;4885133;28;20577;-78
2021/01/15 11:56:42;;;;;;;1.02;0.80;;;-1.00;99.90;;;;;;4869715;28;20109;-78
2021/01/15 11:59:05;;;;;;;3.05;1.17;;;-1.20;99.90;;;;;;4872382;28;20174;-78
2021/01/15 12:01:28;;;;;;;5.03;0.80;;;-1.20;99.90;;;;;;4880498;28;20183;-78
2021/01/15 12:03:51;;;;;;;1.23;0.70;;;-1.20;99.90;;;;;;4885460;28;20096;-77
2021/01/15 12:06:15;;;;;;;0.77;0.30;;;-1.20;99.90;;;;;;4892192;28;20097;-78
2021/01/15 12:08:39;;;;;;;3.88;1.08;;;-1.30;99.90;;;;;;4891686;28;20543;-79
2021/01/15 12:11:04;;;;;;;0.55;0.28;;;-1.30;99.90;;;;;;4890953;28;20173;-78
2021/01/15 12:13:28;;;;;;;1.92;1.00;;;-1.30;99.90;;;;;;4890788;28;20445;-78
2021/01/15 12:15:54;;;;;;;0.98;0.60;;;-1.20;99.90;;;;;;4882100;28;20096;-77
2021/01/15 12:18:17;;;;;;;2.40;0.63;;;-1.10;99.90;;;;;;4888811;28;20103;-79
2021/01/15 12:20:40;;;;;;;1.60;0.60;;;;;;;;;;4885653;28;20151;-79
2021/01/15 12:23:03;;;;;;;0.63;0.30;;;-1.30;99.90;;;;;;4891517;28;20181;-79
2021/01/15 12:25:27;;;;;;;0.52;0.40;;;-1.30;99.90;;;;;;4891191;28;20094;-78
2021/01/15 12:27:50;;;;;;;0.82;0.50;;;-1.30;99.90;;;;;;4885997;28;20267;-78
2021/01/15 12:30:16;;;;;;;1.45;0.70;;;-1.20;99.90;;;;;;4891061;28;20145;-78
2021/01/15 12:32:39;;;;;;;0.82;0.50;;;-1.20;99.90;;;;;;4886376;28;20096;-80
2021/01/15 12:35:12;;;;;;;0.73;0.45;;;-1.40;99.90;;;;;;4890324;28;20088;-78
2021/01/15 12:37:35;;;;;;;0.75;0.50;;;;;;;;;;4876319;28;20110;-78
2021/01/15 12:39:58;;;;;;;0.73;0.50;;;-1.70;99.90;;;;;;4900644;28;20096;-78
2021/01/15 12:42:22;;;;;;;0.55;0.40;;;-1.60;99.90;;;;;;4894401;28;20531;-77
2021/01/15 12:44:59;;;;;;;2.10;0.50;;;-1.40;99.90;;;;;;4882133;28;20095;-78
2021/01/15 12:47:25;;;;;;;0.20;0.20;;;-1.40;99.90;;;;;;4887599;28;20116;-79
2021/01/15 12:49:48;;;;;;;0.82;0.40;;;-1.30;99.90;;;;;;4891283;28;20113;-79
2021/01/15 12:52:11;;;;;;;1.10;0.47;;;-1.20;99.90;;;;;;4890844;28;20111;-79
2021/01/15 12:54:34;;;;;;;0.82;0.50;;;-1.20;99.90;;;;;;4889704;28;20095;-79
2021/01/15 12:56:57;;;;;;;2.25;0.50;;;-1.10;99.90;;;;;;4890446;28;20212;-79
2021/01/15 12:59:21;;;;;;;1.35;0.60;;;-1.00;99.90;;;;;;4889972;28;20094;-79
2021/01/15 13:01:44;;;;;;;0.82;0.50;;;-0.80;99.90;;;;;;4891687;28;20107;-78
2021/01/15 13:04:07;;;;;;;1.42;0.55;;;;;;;;;;4882470;28;20101;-77
2021/01/15 13:06:35;;;;;;;2.58;0.47;;;-0.80;99.90;;;;;;4891055;28;20095;-79
2021/01/15 13:08:58;;;;;;;1.60;0.65;;;-1.00;99.90;;;;;;4861214;28;22488;-80
2021/01/15 13:11:21;;;;;;;1.23;0.70;;;-1.10;99.90;;;;;;4886614;28;20107;-78
2021/01/15 13:13:45;;;;;;;1.20;0.60;;;-1.20;99.90;;;;;;4885972;28;20549;-78
2021/01/15 13:16:09;;;;;;;1.38;0.70;;;-1.30;99.90;;;;;;4886667;28;20492;-80
2021/01/15 13:18:32;;;;;;;0.98;0.47;;;-1.40;99.90;;;;;;4881903;28;20107;-79
2021/01/15 13:20:55;;;;;;;0.88;0.50;;;;;;;;;;4889319;28;20169;-80
2021/01/15 13:23:18;;;;;;;3.03;0.82;;;-1.60;99.90;;;;;;4889431;28;20523;-81
2021/01/15 13:25:41;;;;;;;1.80;0.80;;;-1.60;99.90;;;;;;4887153;28;20107;-79
2021/01/15 13:28:06;;;;;;;1.02;0.43;;;-1.60;99.90;;;;;;4886569;28;20099;-78
2021/01/15 13:30:31;;;;;;;;;;;-1.60;99.90;;;;;;4884990;28;20214;-79
2021/01/15 13:32:55;;;;;;;0.73;0.47;;;-1.70;99.90;;;;;;4890822;28;20391;-79
2021/01/15 13:35:18;;;;;;;2.05;0.52;;;-1.70;99.90;;;;;;4879919;28;20111;-78
2021/01/15 13:37:41;;;;;;;0.98;0.60;;;-1.70;99.90;;;;;;4889031;28;20095;-79
2021/01/15 13:40:06;;;;;;;4.20;1.13;;;-1.60;99.90;;;;;;4885870;28;20546;-79
2021/01/15 13:42:30;;;;;;;2.05;0.98;;;-1.60;99.90;;;;;;4889768;28;20106;-80
2021/01/15 13:44:53;;;;;;;1.50;0.95;;;-1.60;99.90;;;;;;4874148;28;20187;-79
2021/01/15 13:47:17;;;;;;;1.40;0.70;;;-1.70;99.90;;;;;;4887647;28;20123;-78
2021/01/15 13:49:41;;;;;;;1.65;0.93;;;;;;;;;;4887934;28;20165;-79
2021/01/15 13:52:05;;;;;;;1.47;0.90;;;-1.70;99.90;;;;;;4887404;28;20107;-78
2021/01/15 13:54:29;;;;;;;3.60;0.80;;;-1.70;99.90;;;;;;4886562;28;20503;-79
2021/01/15 13:56:52;;;;;;;1.95;0.82;;;-1.70;99.90;;;;;;4888683;28;20162;-80
2021/01/15 13:59:15;;;;;;;2.75;1.00;;;-1.80;99.90;;;;;;4885587;28;20097;-80
2021/01/15 14:01:39;;;;;;;1.85;0.95;;;;;;;;;;4887848;28;20113;-80
2021/01/15 14:07:06;;;;;;;4.38;1.25;;;-1.90;99.90;;;;;;4885956;28;20095;-79
2021/01/15 14:09:30;;;;;;;1.73;0.77;;;;;;;;;;4885508;28;21003;-79
2021/01/15 14:11:54;;;;;;;3.53;0.95;;;-1.90;99.90;;;;;;4886172;28;20090;-79
2021/01/15 14:14:17;;;;;;;2.70;1.10;;;-2.00;99.90;;;;;;4888287;28;20104;-80
2021/01/15 14:16:40;;;;;;;3.20;1.08;;;-1.90;99.90;;;;;;4887269;28;20101;-80
2021/01/15 14:19:05;;;;;;;3.00;0.90;;;-1.90;99.90;;;;;;4887304;28;20107;-81
2021/01/15 14:21:31;;;;;;;2.00;1.00;;;-1.90;99.90;;;;;;4887589;28;21871;-79
2021/01/15 14:23:55;;;;;;;2.25;0.98;;;-1.90;99.90;;;;;;4885718;28;20173;-78
2021/01/15 14:26:18;;;;;;;1.83;1.02;;;-1.90;99.90;;;;;;4885277;28;20471;-80
2021/01/15 14:28:41;;;;;;;1.95;0.88;;;-1.90;99.90;;;;;;4888012;28;20098;-79
2021/01/15 14:31:04;;;;;;;2.85;1.02;;;-1.90;99.90;;;;;;4887262;28;20103;-79
2021/01/15 14:33:27;;;;;;;3.25;1.33;;;-1.90;99.90;;;;;;4886647;28;20532;-78
2021/01/15 14:35:51;;;;;;;5.18;1.45;;;;;;;;;;4889060;28;20104;-79
2021/01/15 14:38:14;;;;;;;3.45;1.38;;;-2.00;99.90;;;;;;4887974;28;20098;-79
2021/01/15 14:40:38;;;;;;;2.47;1.17;;;-2.00;99.90;;;;;;4888098;28;20096;-79
2021/01/15 14:43:02;;;;;;;3.53;1.05;;;-2.10;99.90;;;;;;4887928;28;20094;-80
2021/01/15 14:45:25;;;;;;;2.15;0.95;;;;;;;;;;4885004;28;20096;-80
2021/01/15 14:47:48;;;;;;;4.78;1.55;;;-2.10;99.90;;;;;;4889253;28;20517;-79
2021/01/15 14:50:16;;;;;;;3.97;1.45;;;-2.10;99.90;;;;;;4886539;28;20096;-80
2021/01/15 14:52:43;;;;;;;2.78;1.30;;;-2.10;99.90;;;;;;4886992;28;20687;-80
2021/01/15 14:55:07;;;;;;;2.92;1.52;;;-2.20;99.90;;;;;;4888356;28;20110;-79
2021/01/15 14:57:34;;;;;;;3.00;1.05;;;;;;;;;;4885875;28;20087;-80
2021/01/15 14:59:57;;;;;;;1.77;1.00;;;-2.20;99.90;;;;;;4885348;28;20127;-79
2021/01/15 15:02:20;;;;;;;1.92;0.73;;;-2.30;99.90;;;;;;4887177;28;20090;-80
2021/01/15 15:04:43;;;;;;;2.53;1.13;;;-2.30;99.90;;;;;;4889358;28;20093;-80
2021/01/15 15:07:07;;;;;;;1.92;0.95;;;-2.30;99.90;;;;;;4887315;28;20114;-79
2021/01/15 15:09:31;;;;;;;1.73;0.93;;;-2.30;99.90;;;;;;4886683;28;20095;-82
2021/01/15 15:11:54;;;;;;;3.35;1.58;;;-2.40;99.90;;;;;;4884831;28;20093;-80
2021/01/15 15:14:18;;;;;;;4.28;1.27;;;-2.40;99.90;;;;;;4887007;28;20114;-80
2021/01/15 15:16:41;;;;;;;4.03;1.45;;;;;;;;;;4888677;28;20097;-80
2021/01/15 15:19:04;;;;;;;1.98;1.08;;;-2.40;99.90;;;;;;4889662;28;20481;-82
2021/01/15 15:21:27;;;;;;;3.67;1.67;;;-2.40;99.90;;;;;;4884376;28;20200;-79
2021/01/15 15:23:51;;;;;;;2.60;1.50;;;-2.40;99.90;;;;;;4888229;28;20101;-80
2021/01/15 15:26:14;;;;;;;2.67;1.10;;;-2.40;99.90;;;;;;4886543;28;20109;-80
2021/01/15 15:28:38;;;;;;;4.45;1.75;;;-2.40;99.90;;;;;;4888412;28;20098;-82
2021/01/15 15:31:03;;;;;;;4.27;1.10;;;-2.40;99.90;;;;;;4887511;28;20096;-80
2021/01/15 15:33:29;;;;;;;2.80;1.17;;;-2.40;99.90;;;;;;4885194;28;20090;-80